createdAt,value
2023-06-24T00:00:13.285Z,7.20
2023-06-24T00:02:45.108Z,6.00
2023-06-24T00:05:12.278Z,5.72
2023-06-24T00:07:45.728Z,5.07
2023-06-24T00:10:17.280Z,6.55
2023-06-24T00:12:45.785Z,5.38
2023-06-24T00:15:13.202Z,4.97
2023-06-24T00:17:41.070Z,6.88
2023-06-24T00:20:10.650Z,5.75
2023-06-24T00:22:45.675Z,5.73
2023-06-24T00:25:13.020Z,5.15
2023-06-24T00:27:39.860Z,4.88
2023-06-24T00:30:07.440Z,7.13
2023-06-24T00:32:35.810Z,6.47
2023-06-24T00:35:02.748Z,6.38
2023-06-24T00:37:30.049Z,5.47
2023-06-24T00:39:57.161Z,7.80
2023-06-24T00:42:24.123Z,8.13
2023-06-24T00:44:51.086Z,9.35
2023-06-24T00:47:18.125Z,7.07
2023-06-24T00:49:46.645Z,7.55
2023-06-24T00:52:16.688Z,7.25
2023-06-24T00:54:44.914Z,8.10
2023-06-24T00:57:13.128Z,9.00
2023-06-24T00:59:41.196Z,8.88
2023-06-24T01:02:08.426Z,8.18
2023-06-24T01:04:35.798Z,9.15
2023-06-24T01:07:03.154Z,11.48
2023-06-24T01:09:30.215Z,9.52
2023-06-24T01:11:57.623Z,9.40
2023-06-24T01:14:25.008Z,7.45
2023-06-24T01:17:10.110Z,9.82
2023-06-24T01:19:55.276Z,9.43
2023-06-24T01:22:47.775Z,10.85
2023-06-24T01:25:43.756Z,10.38
2023-06-24T01:28:20.983Z,12.20
2023-06-24T01:31:03.384Z,12.20
2023-06-24T01:33:56.267Z,11.48
2023-06-24T01:36:25.784Z,10.10
2023-06-24T01:39:02.113Z,11.20
2023-06-24T01:41:35.180Z,16.00
2023-06-24T01:44:03.040Z,11.82
2023-06-24T01:46:31.159Z,11.27
2023-06-24T01:49:04.343Z,11.73
2023-06-24T01:51:32.807Z,11.75
2023-06-24T01:54:04.257Z,11.65
2023-06-24T01:56:33.029Z,18.48
2023-06-24T01:59:02.298Z,11.48
2023-06-24T02:01:32.997Z,14.32
2023-06-24T02:04:01.763Z,14.45
2023-06-24T02:06:30.891Z,13.50
2023-06-24T02:09:00.148Z,12.75
2023-06-24T02:11:29.288Z,12.68
2023-06-24T02:13:57.566Z,14.05
2023-06-24T02:16:25.594Z,13.88
2023-06-24T02:18:53.599Z,13.93
2023-06-24T02:21:23.739Z,14.48
2023-06-24T02:23:52.653Z,12.43
2023-06-24T02:26:20.603Z,14.73
2023-06-24T02:28:49.522Z,16.30
2023-06-24T02:31:17.276Z,12.07
2023-06-24T02:33:44.454Z,12.25
2023-06-24T02:36:12.502Z,12.00
2023-06-24T02:38:39.526Z,12.90
2023-06-24T02:41:06.692Z,12.10
2023-06-24T02:43:34.169Z,13.13
2023-06-24T02:46:04.136Z,14.82
2023-06-24T02:48:33.458Z,11.47
2023-06-24T02:51:01.201Z,11.95
2023-06-24T02:53:28.940Z,11.88
2023-06-24T02:55:57.864Z,11.90
2023-06-24T02:58:32.344Z,13.60
2023-06-24T03:01:09.475Z,12.65
2023-06-24T03:03:57.747Z,14.40
2023-06-24T03:06:25.303Z,11.77
2023-06-24T03:08:56.014Z,13.75
2023-06-24T03:11:23.826Z,13.75
2023-06-24T03:13:50.748Z,16.45
2023-06-24T03:16:30.779Z,13.53
2023-06-24T03:19:03.424Z,15.02
2023-06-24T03:21:30.571Z,11.15
2023-06-24T03:24:06.507Z,11.57
2023-06-24T03:26:37.973Z,11.02
2023-06-24T03:29:07.519Z,12.73
2023-06-24T03:31:34.845Z,14.30
2023-06-24T03:34:01.993Z,15.68
2023-06-24T03:36:29.502Z,17.23
2023-06-24T03:38:56.491Z,15.18
2023-06-24T03:41:23.347Z,20.13
2023-06-24T03:43:50.177Z,21.23
2023-06-24T03:46:17.110Z,18.83
2023-06-24T03:48:44.720Z,16.67
2023-06-24T03:51:13.032Z,17.05
2023-06-24T03:53:40.407Z,17.67
2023-06-24T03:56:07.344Z,18.58
2023-06-24T03:58:34.275Z,17.52
2023-06-24T04:01:03.441Z,16.88
2023-06-24T04:03:30.498Z,20.02
2023-06-24T04:05:57.549Z,13.98
2023-06-24T04:08:30.253Z,16.10
2023-06-24T04:11:04.591Z,12.10
2023-06-24T04:13:33.240Z,13.98
2023-06-24T04:16:01.734Z,14.98
2023-06-24T04:18:28.969Z,14.30
2023-06-24T04:20:56.127Z,14.07
2023-06-24T04:23:22.962Z,10.52
2023-06-24T04:25:49.925Z,11.35
2023-06-24T04:28:16.796Z,13.27
2023-06-24T04:30:43.648Z,11.75
2023-06-24T04:33:10.545Z,11.13
2023-06-24T04:35:38.313Z,9.90
2023-06-24T04:38:05.748Z,11.82
2023-06-24T04:40:33.513Z,12.38
2023-06-24T04:43:00.339Z,8.93
2023-06-24T04:45:27.188Z,11.13
2023-06-24T04:47:54.393Z,11.15
2023-06-24T04:50:21.304Z,8.85
2023-06-24T04:52:55.232Z,8.98
2023-06-24T04:55:23.392Z,7.25
2023-06-24T04:57:50.611Z,8.38
2023-06-24T05:00:17.585Z,8.73
2023-06-24T05:02:44.505Z,6.55
2023-06-24T05:05:11.457Z,6.05
2023-06-24T05:07:38.386Z,6.78
2023-06-24T05:10:05.484Z,6.63
2023-06-24T05:12:32.344Z,6.25
2023-06-24T05:14:59.257Z,8.18
2023-06-24T05:17:26.206Z,5.32
2023-06-24T05:19:53.136Z,9.80
2023-06-24T05:22:20.079Z,5.38
2023-06-24T05:24:46.918Z,7.82
2023-06-24T05:27:13.892Z,5.40
2023-06-24T05:29:40.839Z,8.40
2023-06-24T05:32:08.044Z,7.00
2023-06-24T05:34:36.227Z,5.28
2023-06-24T05:37:03.318Z,5.47
2023-06-24T05:39:30.926Z,4.00
2023-06-24T05:41:57.853Z,4.32
2023-06-24T05:44:24.699Z,5.43
2023-06-24T05:46:51.665Z,5.72
2023-06-24T05:49:18.502Z,4.68
2023-06-24T05:51:45.442Z,4.28
2023-06-24T05:54:12.347Z,4.63
2023-06-24T05:56:40.211Z,4.47
2023-06-24T05:59:07.653Z,4.38
2023-06-24T06:01:34.589Z,4.90
2023-06-24T06:04:01.459Z,5.45
2023-06-24T06:06:28.321Z,3.25
2023-06-24T06:08:55.165Z,4.53
2023-06-24T06:11:21.993Z,3.90
2023-06-24T06:13:48.903Z,3.70
2023-06-24T06:16:15.886Z,5.72
2023-06-24T06:18:42.697Z,3.92
2023-06-24T06:21:09.590Z,3.72
2023-06-24T06:23:36.423Z,4.28
2023-06-24T06:26:03.386Z,4.32
2023-06-24T06:28:30.336Z,3.40
2023-06-24T06:30:58.196Z,4.03
2023-06-24T06:33:25.104Z,6.35
2023-06-24T06:35:51.987Z,4.68
2023-06-24T06:38:18.873Z,3.55
2023-06-24T06:40:45.761Z,3.15
2023-06-24T06:43:12.669Z,3.08
2023-06-24T06:45:39.765Z,4.80
2023-06-24T06:48:08.703Z,5.78
2023-06-24T06:50:36.192Z,3.67
2023-06-24T06:53:03.178Z,3.63
2023-06-24T06:55:30.305Z,3.72
2023-06-24T06:57:57.173Z,4.00
2023-06-24T07:00:24.096Z,3.38
2023-06-24T07:02:51.096Z,2.60
2023-06-24T07:05:18.034Z,4.57
2023-06-24T07:07:46.455Z,3.53
2023-06-24T07:10:13.638Z,3.75
2023-06-24T07:12:41.346Z,3.15
2023-06-24T07:15:10.965Z,4.07
2023-06-24T07:17:39.446Z,3.53
2023-06-24T07:20:06.838Z,2.20
2023-06-24T07:22:33.838Z,3.10
2023-06-24T07:25:01.588Z,6.85
2023-06-24T07:27:28.522Z,3.40
2023-06-24T07:29:55.350Z,3.00
2023-06-24T07:32:22.251Z,3.33
2023-06-24T07:34:49.127Z,3.13
2023-06-24T07:37:24.027Z,2.67
2023-06-24T07:39:52.376Z,4.43
2023-06-24T07:42:19.972Z,2.70
2023-06-24T07:44:48.022Z,3.67
2023-06-24T07:47:15.557Z,3.08
2023-06-24T07:49:42.406Z,3.30
2023-06-24T07:52:09.313Z,2.25
2023-06-24T07:54:36.813Z,3.85
2023-06-24T07:57:04.290Z,2.50
2023-06-24T07:59:31.202Z,3.80
2023-06-24T08:01:58.177Z,2.38
2023-06-24T08:04:25.120Z,3.47
2023-06-24T08:06:52.070Z,2.25
2023-06-24T08:09:19.107Z,3.47
2023-06-24T08:11:46.016Z,2.03
2023-06-24T08:14:12.892Z,2.60
2023-06-24T08:16:39.742Z,3.08
2023-06-24T08:19:06.643Z,4.00
2023-06-24T08:21:33.631Z,6.35
2023-06-24T08:24:00.490Z,2.92
2023-06-24T08:26:27.450Z,4.07
2023-06-24T08:28:54.305Z,4.95
2023-06-24T08:31:23.895Z,3.30
2023-06-24T08:33:54.416Z,4.85
2023-06-24T08:36:23.678Z,3.60
2023-06-24T08:38:50.744Z,2.72
2023-06-24T08:41:17.641Z,3.55
2023-06-24T08:43:44.515Z,2.05
2023-06-24T08:46:12.515Z,3.08
2023-06-24T08:48:41.964Z,2.75
2023-06-24T08:51:10.361Z,4.15
2023-06-24T08:53:43.112Z,2.75
2023-06-24T08:56:11.132Z,2.10
2023-06-24T08:58:38.037Z,3.67
2023-06-24T09:01:05.238Z,3.42
2023-06-24T09:03:32.662Z,2.15
2023-06-24T09:05:59.569Z,5.13
2023-06-24T09:08:26.484Z,2.20
2023-06-24T09:10:59.474Z,3.15
2023-06-24T09:13:36.919Z,2.42
2023-06-24T09:16:17.450Z,2.75
2023-06-24T09:18:50.586Z,2.53
2023-06-24T09:21:36.698Z,1.80
2023-06-24T09:24:03.891Z,1.83
2023-06-24T09:26:31.347Z,2.20
2023-06-24T09:28:59.040Z,2.05
2023-06-24T09:31:25.970Z,8.77
2023-06-24T09:33:52.859Z,2.50
2023-06-24T09:36:19.795Z,2.28
2023-06-24T09:38:47.028Z,1.63
2023-06-24T09:41:15.512Z,3.42
2023-06-24T09:43:45.196Z,2.20
2023-06-24T09:46:13.010Z,2.58
2023-06-24T09:48:40.330Z,2.70
2023-06-24T09:51:08.003Z,4.15
2023-06-24T09:53:36.352Z,3.85
2023-06-24T09:56:05.446Z,2.60
2023-06-24T09:58:36.510Z,3.25
2023-06-24T10:01:07.776Z,2.72
2023-06-24T10:03:37.508Z,2.03
2023-06-24T10:06:06.700Z,1.95
2023-06-24T10:08:34.728Z,4.18
2023-06-24T10:11:03.110Z,1.83
2023-06-24T10:13:30.496Z,2.42
2023-06-24T10:15:58.737Z,2.47
2023-06-24T10:18:39.437Z,3.08
2023-06-24T10:21:07.840Z,3.08
2023-06-24T10:23:49.760Z,2.58
2023-06-24T10:26:29.513Z,3.00
2023-06-24T10:29:10.372Z,2.97
2023-06-24T10:31:40.542Z,2.60
2023-06-24T10:34:26.000Z,3.72
2023-06-24T10:37:05.655Z,3.90
2023-06-24T10:40:02.009Z,2.20
2023-06-24T10:42:44.900Z,3.60
2023-06-24T10:45:11.921Z,5.60
2023-06-24T10:47:40.581Z,2.00
2023-06-24T10:50:08.757Z,2.45
2023-06-24T10:52:40.025Z,4.03
2023-06-24T10:55:08.347Z,3.58
2023-06-24T10:57:35.291Z,1.90
2023-06-24T11:00:04.414Z,2.65
2023-06-24T11:02:31.474Z,4.30
2023-06-24T11:05:00.115Z,2.97
2023-06-24T11:07:33.085Z,2.38
2023-06-24T11:10:02.359Z,2.67
2023-06-24T11:12:32.061Z,7.27
2023-06-24T11:15:00.607Z,2.38
2023-06-24T11:17:28.382Z,5.47
2023-06-24T11:19:56.124Z,3.03
2023-06-24T11:22:24.266Z,2.22
2023-06-24T11:24:51.909Z,2.92
2023-06-24T11:27:28.986Z,2.83
2023-06-24T11:29:59.576Z,3.13
2023-06-24T11:32:35.565Z,2.38
2023-06-24T11:35:02.628Z,2.83
2023-06-24T11:37:34.569Z,2.28
2023-06-24T11:40:06.386Z,2.05
2023-06-24T11:42:36.510Z,2.28
2023-06-24T11:45:08.782Z,3.90
2023-06-24T11:47:37.114Z,1.92
2023-06-24T11:50:05.772Z,3.88
2023-06-24T11:52:44.921Z,3.78
2023-06-24T11:55:21.664Z,2.55
2023-06-24T11:57:52.767Z,2.22
2023-06-24T12:00:24.750Z,2.33
2023-06-24T12:02:56.665Z,4.68
2023-06-24T12:05:29.679Z,2.50
2023-06-24T12:08:05.646Z,3.85
2023-06-24T12:10:34.689Z,5.47
2023-06-24T12:13:03.500Z,2.57
2023-06-24T12:15:30.444Z,4.25
2023-06-24T12:17:57.692Z,2.03
2023-06-24T12:20:31.315Z,2.40
2023-06-24T12:22:59.443Z,3.08
2023-06-24T12:25:26.388Z,2.85
2023-06-24T12:27:53.242Z,4.00
2023-06-24T12:30:21.417Z,4.80
2023-06-24T12:32:48.336Z,3.97
2023-06-24T12:35:15.286Z,2.40
2023-06-24T12:37:42.340Z,2.65
2023-06-24T12:40:09.662Z,3.95
2023-06-24T12:42:36.540Z,2.33
2023-06-24T12:45:03.646Z,2.60
2023-06-24T12:47:30.675Z,3.58
2023-06-24T12:49:57.602Z,2.55
2023-06-24T12:52:24.492Z,2.47
2023-06-24T12:54:51.390Z,3.20
2023-06-24T12:57:18.371Z,2.28
2023-06-24T12:59:45.271Z,1.90
2023-06-24T13:02:12.160Z,2.78
2023-06-24T13:04:39.008Z,1.92
2023-06-24T13:07:06.343Z,2.83
2023-06-24T13:09:33.236Z,1.98
2023-06-24T13:12:00.100Z,3.70
2023-06-24T13:14:29.182Z,2.38
2023-06-24T13:16:57.020Z,2.20
2023-06-24T13:19:24.214Z,3.47
2023-06-24T13:21:51.130Z,2.60
2023-06-24T13:24:18.032Z,2.60
2023-06-24T13:26:45.764Z,1.70
2023-06-24T13:29:12.830Z,1.67
2023-06-24T13:31:40.695Z,2.70
2023-06-24T13:34:07.973Z,2.63
2023-06-24T13:36:38.598Z,2.10
2023-06-24T13:39:07.413Z,1.88
2023-06-24T13:41:34.877Z,2.80
2023-06-24T13:44:05.501Z,2.63
2023-06-24T13:46:33.226Z,1.88
2023-06-24T13:49:03.166Z,2.15
2023-06-24T13:51:32.620Z,2.35
2023-06-24T13:53:59.498Z,2.53
2023-06-24T13:56:27.599Z,3.53
2023-06-24T13:58:55.527Z,5.32
2023-06-24T14:01:23.450Z,2.13
2023-06-24T14:03:51.520Z,2.75
2023-06-24T14:06:20.767Z,2.17
2023-06-24T14:08:48.103Z,2.10
2023-06-24T14:11:15.093Z,2.85
2023-06-24T14:13:42.408Z,1.92
2023-06-24T14:16:09.828Z,3.92
2023-06-24T14:18:36.922Z,2.22
2023-06-24T14:21:06.048Z,2.25
2023-06-24T14:23:33.923Z,1.98
2023-06-24T14:26:00.849Z,2.00
2023-06-24T14:28:27.990Z,2.20
2023-06-24T14:30:54.913Z,2.35
2023-06-24T14:33:21.856Z,2.67
2023-06-24T14:35:48.748Z,3.42
2023-06-24T14:38:15.714Z,2.58
2023-06-24T14:40:42.625Z,1.90
2023-06-24T14:43:09.484Z,3.85
2023-06-24T14:45:36.366Z,4.00
2023-06-24T14:48:03.422Z,3.35
2023-06-24T14:50:30.326Z,4.63
2023-06-24T14:52:57.187Z,3.20
2023-06-24T14:55:24.075Z,3.30
2023-06-24T14:57:51.028Z,4.90
2023-06-24T15:00:18.164Z,4.45
2023-06-24T15:02:45.124Z,5.10
2023-06-24T15:05:12.030Z,3.38
2023-06-24T15:07:39.409Z,3.20
2023-06-24T15:10:07.230Z,2.90
2023-06-24T15:12:35.677Z,3.00
2023-06-24T15:15:03.029Z,4.50
2023-06-24T15:17:31.610Z,3.63
2023-06-24T15:19:58.638Z,3.28
2023-06-24T15:22:25.539Z,2.92
2023-06-24T15:24:52.601Z,4.93
2023-06-24T15:27:19.659Z,2.70
2023-06-24T15:29:46.593Z,4.22
2023-06-24T15:32:13.487Z,4.28
2023-06-24T15:34:40.365Z,3.42
2023-06-24T15:37:07.407Z,4.95
2023-06-24T15:39:34.637Z,3.40
2023-06-24T15:42:01.585Z,6.53
2023-06-24T15:44:28.590Z,3.58
2023-06-24T15:46:55.519Z,3.95
2023-06-24T15:49:22.501Z,4.35
2023-06-24T15:51:49.408Z,3.15
2023-06-24T15:54:16.722Z,2.85
2023-06-24T15:56:43.717Z,3.05
2023-06-24T15:59:10.682Z,2.53
2023-06-24T16:01:37.741Z,3.45
2023-06-24T16:04:05.220Z,3.47
2023-06-24T16:06:32.072Z,3.33
2023-06-24T16:08:58.995Z,7.13
2023-06-24T16:11:25.968Z,3.67
2023-06-24T16:13:52.848Z,3.97
2023-06-24T16:16:19.729Z,6.53
2023-06-24T16:18:46.633Z,3.92
2023-06-24T16:21:13.469Z,2.92
2023-06-24T16:23:40.296Z,3.25
2023-06-24T16:26:07.339Z,2.30
2023-06-24T16:28:34.222Z,5.05
2023-06-24T16:31:01.193Z,2.90
2023-06-24T16:33:28.248Z,5.22
2023-06-24T16:35:55.068Z,3.85
2023-06-24T16:38:21.975Z,3.33
2023-06-24T16:40:48.965Z,3.13
2023-06-24T16:43:15.883Z,3.03
2023-06-24T16:45:43.110Z,2.80
2023-06-24T16:48:11.886Z,3.47
2023-06-24T16:50:38.883Z,3.30
2023-06-24T16:53:05.932Z,3.28
2023-06-24T16:55:32.823Z,3.17
2023-06-24T16:57:59.709Z,3.83
2023-06-24T17:00:26.577Z,3.60
2023-06-24T17:02:53.557Z,3.40
2023-06-24T17:05:20.713Z,2.70
2023-06-24T17:07:47.573Z,5.45
2023-06-24T17:10:14.492Z,4.13
2023-06-24T17:12:42.509Z,3.10
2023-06-24T17:15:11.369Z,4.47
2023-06-24T17:17:38.497Z,2.70
2023-06-24T17:20:06.310Z,3.38
2023-06-24T17:22:33.260Z,4.00
2023-06-24T17:25:00.260Z,3.28
2023-06-24T17:27:27.275Z,4.68
2023-06-24T17:29:57.597Z,3.90
2023-06-24T17:32:24.774Z,6.10
2023-06-24T17:34:52.584Z,3.70
2023-06-24T17:37:19.492Z,4.65
2023-06-24T17:39:46.388Z,4.85
2023-06-24T17:42:13.567Z,4.45
2023-06-24T17:44:40.778Z,3.03
2023-06-24T17:47:07.916Z,4.68
2023-06-24T17:49:34.784Z,3.25
2023-06-24T17:52:01.799Z,3.78
2023-06-24T17:54:28.644Z,4.10
2023-06-24T17:56:55.507Z,4.97
2023-06-24T17:59:22.356Z,4.03
2023-06-24T18:01:49.672Z,4.78
2023-06-24T18:04:16.957Z,4.50
2023-06-24T18:06:44.376Z,4.00
2023-06-24T18:09:11.348Z,3.42
2023-06-24T18:11:38.202Z,5.53
2023-06-24T18:14:06.184Z,3.30
2023-06-24T18:16:33.142Z,7.22
2023-06-24T18:18:59.996Z,5.60
2023-06-24T18:21:27.660Z,3.72
2023-06-24T18:23:54.540Z,4.28
2023-06-24T18:26:24.029Z,5.20
2023-06-24T18:28:50.899Z,4.22
2023-06-24T18:31:17.817Z,3.33
2023-06-24T18:33:44.679Z,4.20
2023-06-24T18:36:13.630Z,4.60
2023-06-24T18:38:40.631Z,4.78
2023-06-24T18:41:07.539Z,4.57
2023-06-24T18:43:34.364Z,4.50
2023-06-24T18:46:01.213Z,4.05
2023-06-24T18:48:28.049Z,4.10
2023-06-24T18:50:54.895Z,5.22
2023-06-24T18:53:21.732Z,4.13
2023-06-24T18:55:48.551Z,4.10
2023-06-24T18:58:15.365Z,4.07
2023-06-24T19:00:42.527Z,4.35
2023-06-24T19:03:09.466Z,4.40
2023-06-24T19:05:37.325Z,4.82
2023-06-24T19:08:06.136Z,4.32
2023-06-24T19:10:33.283Z,3.85
2023-06-24T19:13:00.273Z,3.95
2023-06-24T19:15:27.448Z,5.72
2023-06-24T19:17:54.429Z,5.10
2023-06-24T19:20:21.300Z,3.97
2023-06-24T19:22:48.188Z,5.40
2023-06-24T19:25:15.544Z,3.53
2023-06-24T19:27:42.457Z,3.80
2023-06-24T19:30:09.630Z,4.07
2023-06-24T19:32:36.832Z,3.90
2023-06-24T19:35:03.897Z,4.05
2023-06-24T19:37:31.615Z,4.63
2023-06-24T19:39:59.405Z,5.10
2023-06-24T19:42:26.260Z,5.07
2023-06-24T19:44:53.118Z,4.80
2023-06-24T19:47:20.237Z,3.95
2023-06-24T19:49:55.518Z,4.80
2023-06-24T19:52:22.880Z,6.13
2023-06-24T19:54:50.125Z,5.32
2023-06-24T19:57:20.204Z,5.38
2023-06-24T19:59:47.543Z,6.97
2023-06-24T20:02:14.461Z,5.68
2023-06-24T20:04:41.476Z,5.95
2023-06-24T20:07:08.472Z,7.07
2023-06-24T20:09:35.511Z,6.75
2023-06-24T20:12:02.685Z,7.57
2023-06-24T20:14:29.559Z,7.03
2023-06-24T20:16:56.424Z,7.80
2023-06-24T20:19:24.423Z,7.57
2023-06-24T20:21:52.073Z,7.97
2023-06-24T20:24:18.980Z,7.40
2023-06-24T20:26:45.875Z,6.75
2023-06-24T20:29:12.800Z,7.80
2023-06-24T20:31:39.884Z,7.65
2023-06-24T20:34:07.014Z,8.32
2023-06-24T20:36:34.056Z,7.25
2023-06-24T20:39:01.421Z,7.40
2023-06-24T20:41:31.852Z,7.00
2023-06-24T20:43:59.611Z,6.95
2023-06-24T20:46:27.988Z,7.00
2023-06-24T20:48:55.711Z,9.32
2023-06-24T20:51:22.648Z,8.30
2023-06-24T20:53:49.537Z,7.80
2023-06-24T20:56:16.429Z,8.05
2023-06-24T20:58:43.310Z,7.90
2023-06-24T21:01:10.845Z,8.13
2023-06-24T21:03:41.214Z,8.13
2023-06-24T21:08:35.425Z,7.28
2023-06-24T21:11:03.456Z,8.43
2023-06-24T21:13:30.289Z,8.05
2023-06-24T21:15:57.141Z,7.47
2023-06-24T21:18:23.982Z,8.35
2023-06-24T21:20:50.833Z,8.50
2023-06-24T21:23:18.153Z,7.68
2023-06-24T21:25:46.297Z,6.13
2023-06-24T21:28:13.908Z,7.03
2023-06-24T21:30:41.187Z,8.02
2023-06-24T21:33:08.111Z,8.38
2023-06-24T21:35:35.176Z,8.15
2023-06-24T21:38:02.047Z,7.72
2023-06-24T21:40:28.949Z,8.95
2023-06-24T21:42:55.928Z,8.88
2023-06-24T21:45:22.901Z,10.48
2023-06-24T21:47:49.783Z,8.50
2023-06-24T21:50:16.680Z,9.20
2023-06-24T21:52:43.585Z,9.45
2023-06-24T21:55:10.531Z,8.75
2023-06-24T21:57:39.038Z,7.75
2023-06-24T22:00:08.340Z,9.73
2023-06-24T22:02:39.639Z,9.45
2023-06-24T22:05:08.702Z,8.98
2023-06-24T22:07:37.402Z,8.45
2023-06-24T22:10:04.462Z,9.20
2023-06-24T22:12:31.277Z,9.73
2023-06-24T22:14:58.189Z,10.52
2023-06-24T22:17:25.189Z,9.77
2023-06-24T22:19:52.097Z,10.07
2023-06-24T22:22:19.958Z,9.75
2023-06-24T22:24:46.987Z,12.27
2023-06-24T22:27:13.931Z,9.68
2023-06-24T22:29:40.818Z,10.55
2023-06-24T22:32:07.978Z,11.23
2023-06-24T22:34:35.037Z,10.88
2023-06-24T22:37:01.875Z,11.30
2023-06-24T22:39:28.682Z,10.70
2023-06-24T22:41:55.622Z,11.40
2023-06-24T22:44:22.485Z,14.00
2023-06-24T22:46:49.381Z,11.93
2023-06-24T22:49:16.359Z,12.63
2023-06-24T22:51:43.449Z,9.95
2023-06-24T22:54:10.321Z,11.10
2023-06-24T22:56:37.178Z,10.18
2023-06-24T22:59:04.077Z,11.05
2023-06-24T23:01:31.200Z,13.18
2023-06-24T23:03:58.547Z,10.50
2023-06-24T23:06:25.738Z,11.40
2023-06-24T23:08:52.870Z,11.63
2023-06-24T23:11:20.133Z,11.93
2023-06-24T23:13:47.107Z,11.50
2023-06-24T23:16:14.794Z,10.93
2023-06-24T23:18:42.019Z,10.38
2023-06-24T23:21:09.399Z,11.13
2023-06-24T23:23:38.447Z,12.35
2023-06-24T23:26:15.930Z,9.88
2023-06-24T23:28:47.386Z,11.13
2023-06-24T23:31:16.025Z,11.25
2023-06-24T23:34:01.762Z,11.43
2023-06-24T23:36:29.749Z,10.25
2023-06-24T23:38:57.687Z,12.07
2023-06-24T23:41:24.904Z,11.45
2023-06-24T23:43:52.022Z,11.35
2023-06-24T23:46:19.490Z,9.57
2023-06-24T23:48:46.501Z,9.73
2023-06-24T23:51:13.510Z,8.68
2023-06-24T23:53:40.727Z,9.55
